Time;durP1;ratioP1;P1;durP2;ratioP2;P2;SDS_P1;SDS_P2;PMS_P1;PMS_P2;Temp;Humidity;BMP_temperature;BMP_pressure;BME280_temperature;BME280_humidity;BME280_pressure;Samples;Min_cycle;Max_cycle;Signal;HPM_P1;HPM_P2
2023/05/09 00:00:36;;;;;;;64.13;37.42;;;;;;;15.32;100.00;101818.19;5005089;28;20114;-60
2023/05/09 00:03:04;;;;;;;66.82;38.33;;;;;;;15.32;100.00;101815.53;5005716;28;20111;-58
2023/05/09 00:05:30;;;;;;;66.82;37.40;;;;;;;15.32;100.00;101817.34;5006467;28;20073;-60
2023/05/09 00:07:55;;;;;;;60.75;36.97;;;;;;;15.32;100.00;101818.19;5006819;28;20061;-60
2023/05/09 00:10:21;;;;;;;67.32;38.33;;;;;;;15.27;100.00;101820.16;5006108;28;20065;-59
2023/05/09 00:12:48;;;;;;;70.20;36.97;;;;;;;15.26;100.00;101815.78;5005789;28;20030;-60
2023/05/09 00:15:13;;;;;;;67.50;38.08;;;;;;;15.25;100.00;101824.66;5007004;28;20024;-60
2023/05/09 00:17:39;;;;;;;67.38;36.40;;;;;;;15.25;100.00;101816.69;5006890;28;20018;-59
2023/05/09 00:20:10;;;;;;;62.53;35.75;;;;;;;15.24;100.00;101818.50;5006398;28;20499;-61
2023/05/09 00:22:36;;;;;;;60.15;35.60;;;;;;;15.25;100.00;101819.34;5004949;28;20107;-61
2023/05/09 00:25:01;;;;;;;61.60;35.10;;;;;;;15.21;100.00;101813.31;4993745;28;20064;-59
2023/05/09 00:27:29;;;;;;;62.17;34.00;;;;;;;15.26;100.00;101805.16;5006551;28;20488;-61
2023/05/09 00:29:55;;;;;;;56.95;33.03;;;;;;;15.31;100.00;101799.66;5005614;28;20030;-61
2023/05/09 00:32:20;;;;;;;55.45;32.42;;;;;;;15.34;100.00;101804.84;5006427;28;20472;-61
2023/05/09 00:34:45;;;;;;;54.92;30.95;;;;;;;15.32;100.00;101796.09;4994150;28;20034;-59
2023/05/09 00:37:11;;;;;;;55.80;30.80;;;;;;;15.36;100.00;101793.25;4993645;28;20029;-59
2023/05/09 00:39:36;;;;;;;55.13;31.42;;;;;;;15.36;100.00;101795.91;5007991;28;20033;-59
2023/05/09 00:42:02;;;;;;;55.25;29.48;;;;;;;15.40;100.00;101796.66;5006240;28;20033;-60
2023/05/09 00:44:27;;;;;;;49.78;28.75;;;;;;;15.44;100.00;101789.44;5005933;28;20049;-60
2023/05/09 00:46:53;;;;;;;40.42;26.27;;;;;;;15.45;100.00;101780.53;5006347;28;20111;-59
2023/05/09 00:49:18;;;;;;;40.30;24.67;;;;;;;15.49;100.00;101779.47;4998294;28;20065;-60
2023/05/09 00:51:43;;;;;;;39.35;24.52;;;;;;;15.48;100.00;101777.75;4987623;28;20481;-59
2023/05/09 00:54:10;;;;;;;41.50;24.08;;;;;;;15.49;100.00;101775.03;4987490;28;20024;-59
2023/05/09 00:56:36;;;;;;;37.67;22.73;;;;;;;15.40;100.00;101772.75;4987039;28;20026;-59
2023/05/09 00:59:02;;;;;;;42.10;23.40;;;;;;;15.40;100.00;101772.75;5005647;28;20040;-61
2023/05/09 01:01:27;;;;;;;35.47;22.50;;;;;;;15.41;100.00;101762.06;4997191;28;20026;-57
2023/05/09 01:03:53;;;;;;;33.17;21.88;;;;;;;15.37;100.00;101763.13;4987158;28;20125;-60
2023/05/09 01:06:31;;;;;;;37.22;20.92;;;;;;;15.39;100.00;101758.59;4986669;28;20050;-60
2023/05/09 01:09:34;;;;;;;37.05;21.15;;;;;;;15.40;100.00;101747.06;4985093;28;20466;-61
2023/05/09 01:12:08;;;;;;;36.33;21.63;;;;;;;15.34;100.00;101742.00;4990266;28;20480;-59
2023/05/09 01:14:49;;;;;;;40.42;21.33;;;;;;;15.35;100.00;101733.09;4998711;28;20116;-58
2023/05/09 01:17:53;;;;;;;31.92;20.20;;;;;;;15.33;100.00;101734.97;5008837;28;20030;-62
2023/05/09 01:20:27;;;;;;;33.25;20.60;;;;;;;15.27;100.00;101729.91;4987717;28;20034;-60
2023/05/09 01:23:11;;;;;;;33.47;19.92;;;;;;;15.29;100.00;101728.03;4971519;28;20466;-59
2023/05/09 01:26:03;;;;;;;29.60;19.05;;;;;;;15.34;100.00;101722.53;4985397;28;20135;-60
2023/05/09 01:28:50;;;;;;;35.42;20.40;;;;;;;15.35;100.00;101717.16;4970165;28;20070;-63
2023/05/09 01:31:16;;;;;;;30.40;19.50;;;;;;;15.31;100.00;101712.03;4970703;28;20093;-60
2023/05/09 01:33:42;;;;;;;37.80;19.40;;;;;;;15.28;100.00;101707.72;4982741;28;20031;-59
2023/05/09 01:36:12;;;;;;;33.17;19.38;;;;;;;15.30;100.00;101705.88;4989654;28;20447;-61
2023/05/09 01:38:38;;;;;;;30.77;19.45;;;;;;;15.34;100.00;101701.28;4990163;28;20022;-60
2023/05/09 01:41:05;;;;;;;34.80;19.67;;;;;;;15.36;100.00;101705.63;4988377;28;20108;-61
2023/05/09 01:43:32;;;;;;;31.05;19.23;;;;;;;15.30;100.00;101703.22;4989426;28;20030;-60
2023/05/09 01:45:58;;;;;;;33.65;19.33;;;;;;;15.29;100.00;101701.47;5002460;28;20026;-60
2023/05/09 01:48:28;;;;;;;27.55;18.42;;;;;;;15.33;100.00;101699.56;5008626;28;20021;-62
2023/05/09 01:50:54;;;;;;;35.13;20.40;;;;;;;15.28;100.00;101702.41;5008076;28;20089;-59
2023/05/09 01:53:21;;;;;;;32.78;19.48;;;;;;;15.31;100.00;101696.97;5009901;28;20030;-64
2023/05/09 01:55:47;;;;;;;27.92;18.55;;;;;;;15.33;100.00;101688.94;5008040;28;20026;-60
2023/05/09 01:58:13;;;;;;;31.02;17.13;;;;;;;15.38;100.00;101685.19;5007186;28;20077;-63
2023/05/09 02:00:39;;;;;;;30.08;18.45;;;;;;;15.35;100.00;101693.25;5008547;28;20068;-60
2023/05/09 02:03:05;;;;;;;27.40;17.00;;;;;;;15.36;100.00;101687.06;5008023;28;20034;-60
2023/05/09 02:05:31;;;;;;;33.03;17.52;;;;;;;15.33;100.00;101681.88;5008032;28;20472;-61
2023/05/09 02:07:57;;;;;;;30.25;17.90;;;;;;;15.28;100.00;101667.91;5008007;28;20113;-59
2023/05/09 02:10:24;;;;;;;29.67;17.52;;;;;;;15.35;100.00;101676.50;5008415;28;20033;-59
2023/05/09 02:12:50;;;;;;;30.00;16.55;;;;;;;15.32;100.00;101674.81;5009588;28;20038;-60
2023/05/09 02:15:15;;;;;;;26.50;15.82;;;;;;;15.29;100.00;101669.63;4990057;28;20374;-61
2023/05/09 02:17:41;;;;;;;25.60;15.57;;;;;;;15.31;100.00;101665.13;4989798;28;20030;-63
2023/05/09 02:20:08;;;;;;;27.35;16.02;;;;;;;15.29;100.00;101665.19;5007036;28;20026;-60
2023/05/09 02:22:34;;;;;;;27.25;15.05;;;;;;;15.27;100.00;101661.72;5007531;28;20061;-59
2023/05/09 02:25:02;;;;;;;28.50;15.68;;;;;;;15.30;100.00;101663.41;5007460;28;20058;-58
2023/05/09 02:27:27;;;;;;;27.30;15.52;;;;;;;15.26;100.00;101661.81;5007901;28;20036;-56
2023/05/09 02:29:55;;;;;;;22.20;14.55;;;;;;;15.26;100.00;101657.34;5008927;28;20045;-59
2023/05/09 02:32:26;;;;;;;26.75;13.85;;;;;;;15.23;100.00;101656.63;5007004;28;20650;-60
2023/05/09 02:34:52;;;;;;;28.17;15.18;;;;;;;15.20;100.00;101651.44;4991151;28;20030;-61
2023/05/09 02:37:18;;;;;;;26.75;14.73;;;;;;;15.19;100.00;101644.38;5006720;28;20496;-59
2023/05/09 02:39:44;;;;;;;22.80;13.52;;;;;;;15.15;100.00;101644.50;5006233;28;20045;-59
2023/05/09 02:42:10;;;;;;;23.80;13.93;;;;;;;15.13;100.00;101642.84;5008282;28;20104;-59
2023/05/09 02:44:37;;;;;;;21.55;14.05;;;;;;;15.14;100.00;101648.06;5005722;28;20026;-60
2023/05/09 02:47:03;;;;;;;26.13;14.10;;;;;;;15.13;100.00;101643.72;5008067;28;20062;-60
2023/05/09 02:49:28;;;;;;;24.80;13.65;;;;;;;15.19;100.00;101645.25;5007335;28;20092;-59
2023/05/09 02:51:54;;;;;;;21.10;14.02;;;;;;;15.18;100.00;101640.00;5007917;28;20500;-59
2023/05/09 02:54:20;;;;;;;33.47;13.68;;;;;;;15.18;100.00;101638.22;5008242;28;20029;-59
2023/05/09 02:56:45;;;;;;;22.73;13.57;;;;;;;15.18;100.00;101632.03;5003321;28;20026;-60
2023/05/09 02:59:11;;;;;;;21.98;13.55;;;;;;;15.18;100.00;101629.38;4988452;28;20030;-58
2023/05/09 03:01:36;;;;;;;26.73;14.10;;;;;;;15.21;100.00;101621.28;4987685;28;20030;-58
2023/05/09 03:04:02;;;;;;;24.95;14.20;;;;;;;15.14;100.00;101621.53;4987844;28;20031;-59
2023/05/09 03:06:27;;;;;;;23.92;13.00;;;;;;;15.18;100.00;101616.09;4989207;28;20031;-58
2023/05/09 03:08:52;;;;;;;22.05;13.20;;;;;;;15.18;100.00;101610.78;4995573;28;20033;-60
2023/05/09 03:11:17;;;;;;;24.52;13.15;;;;;;;15.15;100.00;101607.31;5007996;28;20033;-59
2023/05/09 03:13:43;;;;;;;24.05;12.82;;;;;;;15.18;100.00;101600.19;5007535;28;20022;-62
2023/05/09 03:16:12;;;;;;;19.45;11.77;;;;;;;15.19;100.00;101607.19;4994196;28;20435;-61
2023/05/09 03:18:37;;;;;;;20.45;12.40;;;;;;;15.21;100.00;101594.75;4988922;28;20710;-58
2023/05/09 03:21:02;;;;;;;22.73;12.88;;;;;;;15.20;100.00;101601.00;4987943;28;20034;-58
2023/05/09 03:23:28;;;;;;;23.00;12.50;;;;;;;15.25;100.00;101606.94;4988951;28;20030;-60
2023/05/09 03:25:53;;;;;;;26.00;13.10;;;;;;;15.25;100.00;101609.59;4986510;28;20057;-58
2023/05/09 03:28:18;;;;;;;24.52;12.10;;;;;;;15.24;100.00;101599.94;4987043;28;20389;-58
2023/05/09 03:30:44;;;;;;;21.05;12.32;;;;;;;15.24;100.00;101605.25;4987099;28;20112;-59
2023/05/09 03:33:09;;;;;;;24.25;13.00;;;;;;;15.23;100.00;101606.16;4988945;28;20042;-62
2023/05/09 03:35:34;;;;;;;24.02;13.10;;;;;;;15.31;100.00;101601.41;4988833;28;20030;-62
2023/05/09 03:38:00;;;;;;;21.15;13.50;;;;;;;15.26;100.00;101600.75;4987316;28;20684;-59
2023/05/09 03:40:25;;;;;;;23.02;12.80;;;;;;;15.20;100.00;101593.03;4987448;28;20030;-59
2023/05/09 03:42:51;;;;;;;27.85;13.95;;;;;;;15.19;100.00;101593.94;4986606;28;20030;-58
2023/05/09 03:45:16;;;;;;;22.40;13.73;;;;;;;15.18;100.00;101582.47;4996495;28;20037;-58
2023/05/09 03:47:41;;;;;;;19.73;13.40;;;;;;;15.15;100.00;101575.47;5008002;28;20033;-58
2023/05/09 03:50:07;;;;;;;25.25;13.70;;;;;;;15.16;100.00;101569.25;5007295;28;20036;-58
2023/05/09 03:52:32;;;;;;;27.23;13.52;;;;;;;15.15;100.00;101558.72;5001978;28;20029;-61
2023/05/09 03:54:58;;;;;;;26.40;14.02;;;;;;;15.06;100.00;101559.06;4987444;28;20045;-59
2023/05/09 03:57:23;;;;;;;21.48;13.77;;;;;;;15.08;100.00;101557.25;4987161;28;20456;-60
2023/05/09 03:59:48;;;;;;;23.23;13.93;;;;;;;15.10;100.00;101565.97;4973232;28;20413;-59
2023/05/09 04:02:14;;;;;;;24.63;14.20;;;;;;;15.07;100.00;101564.31;4966955;28;20377;-61
2023/05/09 04:04:39;;;;;;;24.02;14.10;;;;;;;15.06;100.00;101565.25;4978684;28;20440;-58
2023/05/09 04:07:05;;;;;;;26.75;14.95;;;;;;;15.08;100.00;101552.78;5005950;28;20101;-57
2023/05/09 04:09:30;;;;;;;23.58;14.25;;;;;;;15.06;100.00;101554.66;5004932;28;20022;-63
2023/05/09 04:11:56;;;;;;;21.35;13.38;;;;;;;15.05;100.00;101557.38;5005699;28;20070;-59
2023/05/09 04:14:22;;;;;;;26.95;13.85;;;;;;;15.02;100.00;101555.72;5002664;28;20112;-61
2023/05/09 04:16:47;;;;;;;25.35;14.65;;;;;;;14.98;100.00;101546.13;4994189;28;20021;-58
2023/05/09 04:19:12;;;;;;;27.48;14.40;;;;;;;15.01;100.00;101546.00;4992665;28;20022;-63
2023/05/09 04:21:38;;;;;;;27.27;14.57;;;;;;;15.01;100.00;101546.00;4985514;28;20125;-58
2023/05/09 04:24:03;;;;;;;25.70;14.88;;;;;;;15.03;100.00;101546.81;4986327;28;20455;-59
2023/05/09 04:26:30;;;;;;;26.77;15.77;;;;;;;14.93;100.00;101545.47;4986299;28;20022;-59
2023/05/09 04:28:55;;;;;;;24.50;14.85;;;;;;;14.99;100.00;101539.91;4987375;28;20026;-59
2023/05/09 04:31:21;;;;;;;22.77;14.63;;;;;;;15.02;100.00;101539.78;4987451;28;20026;-61
2023/05/09 04:33:47;;;;;;;21.20;13.70;;;;;;;15.08;100.00;101534.19;4987664;28;20025;-56
2023/05/09 04:36:12;;;;;;;25.25;15.18;;;;;;;15.14;100.00;101541.06;4987036;28;20022;-63
2023/05/09 04:38:38;;;;;;;20.90;13.90;;;;;;;15.13;100.00;101532.22;4988352;28;20034;-58
2023/05/09 04:41:03;;;;;;;26.05;16.38;;;;;;;15.15;100.00;101534.81;4986465;28;20023;-60
2023/05/09 04:43:30;;;;;;;31.40;16.15;;;;;;;15.20;100.00;101531.97;4991329;28;20121;-59
2023/05/09 04:45:55;;;;;;;25.05;14.88;;;;;;;15.20;100.00;101534.63;4997692;28;20034;-61
2023/05/09 04:48:20;;;;;;;27.10;14.98;;;;;;;15.28;100.00;101530.72;4987252;28;20022;-58
2023/05/09 04:50:47;;;;;;;23.83;14.90;;;;;;;15.27;100.00;101525.47;4986612;28;20117;-62
2023/05/09 04:53:13;;;;;;;23.00;14.23;;;;;;;15.30;100.00;101520.03;4992989;28;20022;-63
2023/05/09 04:55:38;;;;;;;25.70;14.90;;;;;;;15.29;100.00;101523.59;5006407;28;20043;-63
2023/05/09 04:58:03;;;;;;;19.92;13.95;;;;;;;15.31;100.00;101513.78;5005346;28;20053;-59
2023/05/09 05:00:29;;;;;;;23.33;15.18;;;;;;;15.31;100.00;101511.13;5003438;28;20113;-59
2023/05/09 05:02:54;;;;;;;28.38;15.38;;;;;;;15.22;100.00;101500.91;4985450;28;20037;-59
2023/05/09 05:05:20;;;;;;;26.30;15.77;;;;;;;15.19;100.00;101506.34;4986629;28;20054;-62
2023/05/09 05:07:45;;;;;;;25.85;15.13;;;;;;;15.22;100.00;101496.47;4987051;28;20022;-59
2023/05/09 05:10:10;;;;;;;24.80;15.52;;;;;;;15.19;100.00;101487.75;4984232;28;20158;-59
2023/05/09 05:12:36;;;;;;;25.85;15.13;;;;;;;15.21;100.00;101488.56;4989287;28;20552;-59
2023/05/09 05:15:01;;;;;;;24.80;15.30;;;;;;;15.21;100.00;101481.47;5006673;28;20128;-61
2023/05/09 05:17:28;;;;;;;27.38;15.57;;;;;;;15.24;100.00;101475.16;5005851;28;20033;-59
2023/05/09 05:19:53;;;;;;;25.77;14.95;;;;;;;15.25;100.00;101472.44;5005278;28;20053;-60
2023/05/09 05:22:19;;;;;;;24.05;15.23;;;;;;;15.27;100.00;101470.56;5005355;28;20049;-60
2023/05/09 05:24:44;;;;;;;31.98;15.43;;;;;;;15.29;100.00;101470.50;5002114;28;20113;-58
2023/05/09 05:27:09;;;;;;;24.83;14.57;;;;;;;15.23;100.00;101471.63;4986527;28;20038;-58
2023/05/09 05:29:35;;;;;;;28.75;15.77;;;;;;;15.26;100.00;101476.81;4986841;28;20038;-59
2023/05/09 05:32:00;;;;;;;29.17;14.95;;;;;;;15.32;100.00;101478.31;4986940;28;20026;-58
2023/05/09 05:34:25;;;;;;;24.15;14.73;;;;;;;15.33;100.00;101472.09;4985852;28;20027;-58
2023/05/09 05:36:51;;;;;;;23.75;13.05;;;;;;;15.28;100.00;101472.31;4985854;28;20500;-57
2023/05/09 05:39:16;;;;;;;26.73;14.38;;;;;;;15.26;100.00;101471.50;4984029;28;20112;-66
2023/05/09 05:41:41;;;;;;;20.35;14.00;;;;;;;15.27;100.00;101473.22;4986051;28;20142;-58
2023/05/09 05:44:07;;;;;;;26.83;14.52;;;;;;;15.25;100.00;101464.47;4985240;28;20084;-60
2023/05/09 05:46:32;;;;;;;27.88;15.07;;;;;;;15.28;100.00;101468.78;4985555;28;20038;-58
2023/05/09 05:48:57;;;;;;;25.85;14.80;;;;;;;15.26;100.00;101470.66;4980876;28;20023;-60
2023/05/09 05:51:23;;;;;;;23.02;14.70;;;;;;;15.29;100.00;101471.38;4972702;28;20077;-61
2023/05/09 05:53:48;;;;;;;19.52;13.55;;;;;;;15.38;100.00;101463.94;4990066;28;20026;-60
2023/05/09 05:56:13;;;;;;;20.95;12.90;;;;;;;15.34;100.00;101471.16;5004204;28;20034;-61
2023/05/09 05:58:39;;;;;;;20.00;13.27;;;;;;;15.31;100.00;101468.63;4989335;28;20030;-63
2023/05/09 06:01:04;;;;;;;25.63;13.95;;;;;;;15.25;100.00;101463.59;4987999;28;20029;-60
2023/05/09 06:03:30;;;;;;;24.65;14.25;;;;;;;15.25;100.00;101468.91;4988671;28;20034;-59
2023/05/09 06:05:56;;;;;;;27.98;14.20;;;;;;;15.25;100.00;101458.28;4993623;28;20548;-60
2023/05/09 06:08:21;;;;;;;21.25;13.75;;;;;;;15.28;100.00;101458.16;5007972;28;20108;-60
2023/05/09 06:10:46;;;;;;;24.58;13.77;;;;;;;15.30;100.00;101456.31;5006275;28;20048;-59
2023/05/09 06:13:12;;;;;;;19.60;13.32;;;;;;;15.32;100.00;101458.91;5008170;28;20153;-60
2023/05/09 06:15:37;;;;;;;26.88;14.40;;;;;;;15.32;100.00;101449.13;5008167;28;20180;-59
2023/05/09 06:18:02;;;;;;;25.73;13.32;;;;;;;15.33;100.00;101445.56;4995238;28;20109;-60
2023/05/09 06:20:28;;;;;;;23.58;13.77;;;;;;;15.34;100.00;101439.31;4988651;28;20134;-56
2023/05/09 06:22:53;;;;;;;22.05;13.20;;;;;;;15.37;100.00;101436.50;4989035;28;20472;-60
2023/05/09 06:25:18;;;;;;;20.55;12.57;;;;;;;15.43;100.00;101437.16;4989432;28;20132;-60
2023/05/09 06:27:44;;;;;;;21.08;13.20;;;;;;;15.40;100.00;101440.81;4989617;28;20062;-60
2023/05/09 06:30:09;;;;;;;14.55;11.25;;;;;;;15.45;100.00;101438.84;5002114;28;20038;-57
2023/05/09 06:32:35;;;;;;;20.48;11.88;;;;;;;15.38;100.00;101432.91;5006483;28;20109;-59
2023/05/09 06:35:00;;;;;;;19.75;11.13;;;;;;;15.37;100.00;101435.63;4986906;28;20029;-61
2023/05/09 06:37:26;;;;;;;16.92;10.48;;;;;;;15.33;100.00;101428.75;4987131;28;20414;-60
2023/05/09 06:39:51;;;;;;;17.80;10.70;;;;;;;15.30;100.00;101427.09;4983258;28;20027;-60
2023/05/09 06:42:16;;;;;;;17.13;10.13;;;;;;;15.39;100.00;101431.97;4988640;28;20064;-59
2023/05/09 06:44:42;;;;;;;15.65;10.48;;;;;;;15.30;100.00;101421.78;4986076;28;20022;-60
2023/05/09 06:47:08;;;;;;;19.60;12.25;;;;;;;15.29;100.00;101423.56;4973232;28;20034;-60
2023/05/09 06:49:33;;;;;;;23.52;11.75;;;;;;;15.22;100.00;101421.25;4971026;28;20393;-60
2023/05/09 06:51:59;;;;;;;17.77;11.63;;;;;;;15.25;100.00;101414.03;4970995;28;20034;-61
2023/05/09 06:54:24;;;;;;;23.08;12.02;;;;;;;15.32;100.00;101413.75;4986008;28;20027;-58
2023/05/09 06:56:49;;;;;;;16.52;10.15;;;;;;;15.26;100.00;101412.25;4982174;28;20027;-60
2023/05/09 06:59:15;;;;;;;15.30;10.23;;;;;;;15.32;100.00;101403.97;4976620;28;20027;-60
2023/05/09 07:01:41;;;;;;;14.73;9.60;;;;;;;15.43;100.00;101397.31;4977405;28;20035;-61
2023/05/09 07:04:06;;;;;;;14.63;9.80;;;;;;;15.41;100.00;101410.66;4975410;28;20038;-62
2023/05/09 07:06:32;;;;;;;13.68;9.50;;;;;;;15.37;100.00;101393.16;4981415;28;20030;-61
2023/05/09 07:08:57;;;;;;;20.58;10.38;;;;;;;15.39;100.00;101397.47;4977363;28;20030;-63
2023/05/09 07:11:22;;;;;;;14.35;10.10;;;;;;;15.42;100.00;101388.50;4971876;28;20496;-61
2023/05/09 07:13:48;;;;;;;13.23;8.80;;;;;;;15.37;100.00;101387.84;4974487;28;20035;-61
2023/05/09 07:16:13;;;;;;;13.43;8.80;;;;;;;15.39;100.00;101383.34;4972902;28;20097;-61
2023/05/09 07:18:39;;;;;;;14.00;8.68;;;;;;;15.43;100.00;101382.25;4983758;28;20041;-62
2023/05/09 07:21:04;;;;;;;11.45;7.75;;;;;;;15.62;100.00;101374.31;4982276;28;20491;-61
2023/05/09 07:23:29;;;;;;;12.10;8.45;;;;;;;15.68;100.00;101373.16;4969208;28;20027;-62
2023/05/09 07:25:58;;;;;;;13.93;8.82;;;;;;;15.65;100.00;101366.19;4968754;28;20031;-60
2023/05/09 07:28:23;;;;;;;14.27;8.90;;;;;;;15.69;100.00;101364.25;4968420;28;20085;-63
2023/05/09 07:30:49;;;;;;;16.65;8.80;;;;;;;15.62;100.00;101361.00;4994217;28;20041;-61
2023/05/09 07:33:14;;;;;;;12.43;9.10;;;;;;;15.53;100.00;101359.66;5007006;28;20029;-60
2023/05/09 07:35:39;;;;;;;12.57;8.98;;;;;;;15.62;100.00;101357.53;5005623;28;20034;-60
2023/05/09 07:38:05;;;;;;;14.55;9.27;;;;;;;15.70;100.00;101351.81;5005988;28;20034;-61
2023/05/09 07:40:32;;;;;;;14.65;10.10;;;;;;;15.78;100.00;101355.84;5006017;28;20052;-60
2023/05/09 07:42:57;;;;;;;15.32;10.43;;;;;;;15.76;100.00;101346.22;5005934;28;20559;-60
2023/05/09 07:45:23;;;;;;;17.90;10.70;;;;;;;15.72;100.00;101344.66;5004947;28;20117;-59
2023/05/09 07:47:48;;;;;;;19.30;11.13;;;;;;;15.78;100.00;101339.88;5003488;28;20054;-61
2023/05/09 07:50:14;;;;;;;18.52;10.27;;;;;;;15.63;100.00;101330.00;4994540;28;20110;-61
2023/05/09 07:52:39;;;;;;;16.42;10.63;;;;;;;15.73;100.00;101339.25;4986160;28;20031;-60
2023/05/09 07:55:05;;;;;;;17.92;10.75;;;;;;;15.83;100.00;101328.19;4982171;28;20049;-60
2023/05/09 07:57:30;;;;;;;18.08;11.32;;;;;;;15.69;100.00;101329.72;4985494;28;20029;-60
2023/05/09 07:59:56;;;;;;;17.73;11.77;;;;;;;15.84;100.00;101319.28;4985778;28;20034;-61
2023/05/09 08:02:21;;;;;;;16.10;11.40;;;;;;;15.92;100.00;101315.31;5004048;28;20599;-62
2023/05/09 08:04:49;;;;;;;18.98;12.23;;;;;;;15.97;100.00;101312.47;5005370;28;20571;-64
2023/05/09 08:07:15;;;;;;;13.23;11.30;;;;;;;16.05;100.00;101312.09;5006076;28;20516;-59
2023/05/09 08:09:40;;;;;;;16.05;11.98;;;;;;;16.11;100.00;101308.28;5004404;28;20045;-60
2023/05/09 08:12:06;;;;;;;18.25;12.10;;;;;;;16.12;100.00;101305.53;5005973;28;20264;-59
2023/05/09 08:14:31;;;;;;;15.07;11.32;;;;;;;15.98;100.00;101303.56;5003845;28;20026;-60
2023/05/09 08:16:56;;;;;;;16.75;12.40;;;;;;;15.95;100.00;101297.50;5005125;28;20068;-59
2023/05/09 08:19:24;;;;;;;19.20;12.13;;;;;;;15.86;100.00;101289.03;5006309;28;20084;-59
2023/05/09 08:21:50;;;;;;;19.77;12.57;;;;;;;15.82;100.00;101290.13;5005218;28;20067;-58
2023/05/09 08:24:15;;;;;;;17.13;12.45;;;;;;;15.68;100.00;101285.47;5005452;28;20109;-59
2023/05/09 08:26:41;;;;;;;16.00;12.23;;;;;;;15.70;100.00;101280.97;5005841;28;20022;-58
2023/05/09 08:29:06;;;;;;;15.15;12.15;;;;;;;15.71;100.00;101282.69;5004582;28;20061;-58
2023/05/09 08:31:31;;;;;;;14.85;11.35;;;;;;;15.65;100.00;101277.66;5006038;28;20041;-56
2023/05/09 08:33:56;;;;;;;17.73;11.50;;;;;;;15.78;100.00;101273.47;5004709;28;20026;-59
2023/05/09 08:36:22;;;;;;;13.35;10.35;;;;;;;15.95;100.00;101268.28;5006297;28;20030;-58
2023/05/09 08:38:48;;;;;;;12.70;10.00;;;;;;;16.02;100.00;101278.53;5004078;28;20062;-59
2023/05/09 08:41:14;;;;;;;12.07;8.80;;;;;;;16.10;100.00;101269.34;5005728;28;20029;-57
2023/05/09 08:43:39;;;;;;;10.88;8.35;;;;;;;16.12;100.00;101278.94;5005704;28;20554;-55
2023/05/09 08:46:09;;;;;;;13.55;8.65;;;;;;;16.06;100.00;101268.63;5005704;28;20225;-57
2023/05/09 08:48:38;;;;;;;11.35;8.18;;;;;;;16.20;100.00;101270.59;5004029;28;20014;-58
2023/05/09 08:51:05;;;;;;;13.15;7.88;;;;;;;16.19;100.00;101268.84;5005791;28;20286;-54
2023/05/09 08:53:31;;;;;;;10.13;7.82;;;;;;;16.08;100.00;101264.09;5004273;28;20497;-54
2023/05/09 08:55:59;;;;;;;11.77;7.55;;;;;;;16.14;100.00;101258.44;5002162;28;20026;-59
2023/05/09 08:58:24;;;;;;;11.63;7.75;;;;;;;16.00;100.00;101260.94;5004097;28;20030;-59
2023/05/09 09:00:49;;;;;;;9.52;7.07;;;;;;;16.20;100.00;101259.97;5003828;28;20087;-54
2023/05/09 09:03:16;;;;;;;10.43;6.75;;;;;;;16.23;100.00;101254.50;5003683;28;20101;-58
2023/05/09 09:05:42;;;;;;;10.95;7.38;;;;;;;16.37;100.00;101252.88;5005713;28;20054;-57
2023/05/09 09:08:08;;;;;;;13.25;7.32;;;;;;;16.46;100.00;101246.25;4989103;28;20237;-58
2023/05/09 09:10:34;;;;;;;8.65;6.30;;;;;;;16.34;100.00;101250.41;4985038;28;20042;-59
2023/05/09 09:13:00;;;;;;;7.65;5.72;;;;;;;16.42;100.00;101249.06;4982871;28;20022;-57
2023/05/09 09:15:29;;;;;;;8.20;6.15;;;;;;;16.25;100.00;101246.41;4996015;28;20551;-59
2023/05/09 09:17:57;;;;;;;10.75;7.05;;;;;;;16.25;100.00;101241.09;5005232;28;20113;-57
2023/05/09 09:20:25;;;;;;;9.03;6.27;;;;;;;16.29;100.00;101248.00;5004859;28;20026;-60
2023/05/09 09:22:51;;;;;;;6.72;5.78;;;;;;;16.31;100.00;101240.78;5005437;28;20265;-54
2023/05/09 09:25:16;;;;;;;8.13;5.75;;;;;;;16.24;100.00;101239.38;5003224;28;20033;-56
2023/05/09 09:27:41;;;;;;;13.23;6.15;;;;;;;16.18;100.00;101235.25;5005125;28;20406;-55
2023/05/09 09:30:08;;;;;;;9.88;6.57;;;;;;;16.09;100.00;101233.91;5005313;28;20076;-58
2023/05/09 09:32:34;;;;;;;8.77;5.93;;;;;;;16.12;100.00;101240.88;5008486;28;20025;-55
2023/05/09 09:35:10;;;;;;;8.88;6.40;;;;;;;16.03;100.00;101234.22;5008937;28;20087;-58
2023/05/09 09:37:38;;;;;;;8.98;6.72;;;;;;;16.03;100.00;101231.56;5007589;28;20034;-55
2023/05/09 09:40:08;;;;;;;8.20;6.93;;;;;;;15.93;100.00;101223.19;4998209;28;20341;-59
2023/05/09 09:42:47;;;;;;;8.73;6.65;;;;;;;16.05;100.00;101232.34;4988180;28;20029;-58
2023/05/09 09:45:16;;;;;;;9.40;6.97;;;;;;;15.98;100.00;101230.97;5000680;28;20026;-62
2023/05/09 09:47:42;;;;;;;8.25;6.75;;;;;;;15.98;100.00;101223.81;5008688;28;20105;-57
2023/05/09 09:50:13;;;;;;;10.40;6.40;;;;;;;16.03;100.00;101226.25;5006871;28;20116;-59
2023/05/09 09:52:54;;;;;;;8.70;6.72;;;;;;;15.82;100.00;101222.84;5008823;28;20461;-53
2023/05/09 09:55:21;;;;;;;8.43;7.10;;;;;;;15.87;100.00;101221.66;5007498;28;20026;-56
2023/05/09 09:57:47;;;;;;;8.32;7.22;;;;;;;15.93;100.00;101223.19;5008530;28;20108;-56
2023/05/09 10:00:14;;;;;;;9.55;6.93;;;;;;;15.92;100.00;101214.34;4990955;28;20058;-58
2023/05/09 10:02:57;;;;;;;8.63;7.47;;;;;;;15.84;100.00;101213.00;4988946;28;20033;-56
2023/05/09 10:05:25;;;;;;;11.70;7.03;;;;;;;15.84;100.00;101218.31;4989053;28;20129;-53
2023/05/09 10:07:53;;;;;;;12.13;7.57;;;;;;;15.93;100.00;101209.88;4987540;28;20026;-49
2023/05/09 10:10:19;;;;;;;11.48;7.00;;;;;;;15.99;100.00;101208.75;4988821;28;20023;-59
2023/05/09 10:12:45;;;;;;;12.00;7.30;;;;;;;15.97;100.00;101199.97;5008604;28;20040;-55
2023/05/09 10:15:11;;;;;;;12.98;7.32;;;;;;;16.01;100.00;101210.38;5008006;28;20026;-59
2023/05/09 10:17:36;;;;;;;12.35;7.70;;;;;;;16.05;100.00;101205.78;5008190;28;20467;-53
2023/05/09 10:20:04;;;;;;;13.07;8.07;;;;;;;16.12;100.00;101201.88;5008095;28;20022;-58
2023/05/09 10:22:32;;;;;;;10.93;7.80;;;;;;;16.09;100.00;101202.00;5007215;28;20112;-57
2023/05/09 10:25:02;;;;;;;8.68;7.85;;;;;;;16.28;100.00;101198.38;5005105;28;20041;-59
2023/05/09 10:27:30;;;;;;;9.88;7.90;;;;;;;16.38;100.00;101194.31;5004764;28;20072;-56
2023/05/09 10:30:03;;;;;;;9.18;8.13;;;;;;;16.32;100.00;101199.97;4988222;28;20457;-54
2023/05/09 10:32:48;;;;;;;8.60;7.80;;;;;;;16.48;100.00;101196.47;4987809;28;20433;-55
2023/05/09 10:35:16;;;;;;;13.88;8.23;;;;;;;16.31;100.00;101192.91;4988713;28;20034;-55
2023/05/09 10:37:42;;;;;;;9.43;7.80;;;;;;;16.28;100.00;101177.97;4988641;28;20035;-57
2023/05/09 10:40:09;;;;;;;9.02;7.57;;;;;;;16.30;100.00;101185.88;4994186;28;20308;-60
2023/05/09 10:42:34;;;;;;;10.98;8.00;;;;;;;16.34;100.00;101176.78;5003932;28;20029;-54
2023/05/09 10:45:00;;;;;;;10.30;8.00;;;;;;;16.46;100.00;101166.47;4988614;28;20034;-56
2023/05/09 10:47:26;;;;;;;12.90;8.68;;;;;;;16.40;100.00;101173.81;4987417;28;20393;-56
2023/05/09 10:49:52;;;;;;;11.60;7.88;;;;;;;16.45;100.00;101167.38;4987896;28;20130;-57
2023/05/09 10:52:21;;;;;;;14.38;8.52;;;;;;;16.36;100.00;101169.59;4987861;28;20504;-57
2023/05/09 10:54:57;;;;;;;10.18;8.18;;;;;;;16.42;100.00;101163.09;4985636;28;20081;-58
2023/05/09 10:57:22;;;;;;;9.98;7.43;;;;;;;16.35;100.00;101154.59;4968443;28;20054;-55
2023/05/09 10:59:50;;;;;;;9.10;7.15;;;;;;;16.55;100.00;101155.31;4968111;28;20079;-57
2023/05/09 11:02:19;;;;;;;8.88;7.97;;;;;;;16.45;100.00;101156.75;4968655;28;20529;-55